Domov               UVHVVR             MKGP            O straneh              
ZDRAVSTVENO VARSTVO RASTLIN
  MREŽA AGROMET. POSTAJ
 ► PROGNOSTIČNA OBVESTILA
AGROMETEOROLOŠKI PODATKI -
ARSO
OBVLADOVANJE TVEGANJ ZARADI
NEUGODNIH VREMENSKIH RAZMER
  ► NARAVNE NESREČE
  ► SUŠA/MOČA
  ► NAMAKANJE
  ► ŽLED (gozdarstvo)
KARTOGRAFSKI PRIKAZI
SPLETNE POVEZAVE
PROJEKTI IN PUBLIKACIJE

AGROMETEOROLOŠKA MREŽA: VREMENSKE POSTAJE IN FENOLOŠKA OPAZOVANJA

Pregled podatkov za lokacijo Podbrezje, meteorološka postaja 855704

Pregled senzorjev na lokaciji

ID Ime Zadnja
vrednost
Datum
zadnje
spremembe
Tip
senzorja
4023 Omočenost lista (U) 0 U 26.3.2019 18:00 A730WET
4024 Padavine (mm) 0 mm 26.3.2019 18:00 Rain-O-Matic
4022 Relativna vlaga 2 m (% RH) 27,74 % RH 26.3.2019 18:00 50YA
4021 Temperatura 2 m (°C) 11,12 °C 26.3.2019 18:00 50YA

Pregled podatkov zadnjih 24 ur

Zap.
št.
Datum in čas Podbrezje
Omočenost
lista
Padavine Relativna
vlaga
2
m
Temperatura
2
m
1 26.3.2019 17:30
2 26.3.2019 17:00 0 0 27,7 11,1
3 26.3.2019 16:30 0 0 27,4 12,3
4 26.3.2019 16:00 0 0 28,6 11,7
5 26.3.2019 15:30 0 0 29,1 12,1
6 26.3.2019 15:00 0 0 29,3 12,5
7 26.3.2019 14:30 0 0 31,1 12,2
8 26.3.2019 14:00 0 0 30,9 12,3
9 26.3.2019 13:30 0 0 32,9 11,8
10 26.3.2019 13:00 0 0 34,8 10,8
11 26.3.2019 12:30 0 0 34 11,1
12 26.3.2019 12:00 0 0 35,3 11,1
13 26.3.2019 11:30 0 0 35,8 10,2
14 26.3.2019 11:00 0 0 36,6 9,8
15 26.3.2019 10:30 0 0 38,7 8,8
16 26.3.2019 10:00 0 0 40 8,4
17 26.3.2019 09:30 0 0 42,6 7,8
18 26.3.2019 09:00 0 0 48,2 6,5
19 26.3.2019 08:30 0 0 51,6 6,8
20 26.3.2019 08:00 0 0 58,8 6,1
21 26.3.2019 07:30 0 0 67,7 4,4
22 26.3.2019 07:00 5 0 79,7 2,6
23 26.3.2019 06:30 6 0 92,2 1,2
24 26.3.2019 06:00 6 0 95,5 1,3
25 26.3.2019 05:30 7 0 95,5 1,7
26 26.3.2019 05:00 7 0 95,1 1,9
27 26.3.2019 04:30 8 0 95 2
28 26.3.2019 04:00 8 0 93,9 2,1
29 26.3.2019 03:30 9 0 94,5 2,2
30 26.3.2019 03:00 9 0 93,9 2,3
31 26.3.2019 02:30 9 0 93,6 2,4
32 26.3.2019 02:00 9 0 92,5 2,6
33 26.3.2019 01:30 7 0,2 91,4 2,4
34 26.3.2019 01:00 7 0,2 93,5 2,5
35 26.3.2019 00:30 8 0,2 93,2 2,4
36 26.3.2019 00:00 8 0 93,3 2,4
37 25.3.2019 23:30 8 0,2 92,8 2,3
38 25.3.2019 23:00 7 0,4 93,1 2,3
39 25.3.2019 22:30 7 0,2 92,6 2,4
40 25.3.2019 22:00 7 0,8 90,9 3,2
41 25.3.2019 21:30 7 0,2 88,7 3,3
42 25.3.2019 21:00 8 1 86,4 3,6
43 25.3.2019 20:30 8 0,6 87,5 4
44 25.3.2019 20:00 8 1 84,5 4,3
45 25.3.2019 19:30 9 0,4 88 4,7
46 25.3.2019 19:00 10 0,8 86,6 4,9
47 25.3.2019 18:30 10 1,2 87,2 5,5
48 25.3.2019 18:00 10 1,6 89,8 6,6
© 2011 Ministrstvo za kmetijstvo, gozdarstvo in prehrano. Vse pravice pridržane.